sim
Sign-in with your pilot id or email,
or register
Callsign
Passwort

Schedule Details

Flight Number: OEO2676
Departure: Paderborn Lippstadt Airport (EDLP) at 04:25
Arrival: Fuerteventura Airport (GCFV) at 09:20

Weather Information
Getting current METAR information for EDLP 181950Z 09007KT CAVOK 14/00 Q1027
Getting current METAR information for GCFV 182000Z 36016KT 9999 FEW045 18/11 Q1019

Schedule Frequency

Route Map